createdAt,value
2019-02-02T00:02:25.618Z,19.03
2019-02-02T00:04:56.130Z,14.53
2019-02-02T00:07:26.822Z,13.77
2019-02-02T00:09:57.340Z,20.53
2019-02-02T00:12:27.904Z,15.73
2019-02-02T00:14:58.397Z,17.73
2019-02-02T00:17:29.040Z,21.27
2019-02-02T00:19:59.667Z,19.87
2019-02-02T00:22:30.171Z,18.93
2019-02-02T00:25:00.687Z,19.03
2019-02-02T00:27:41.044Z,19.70
2019-02-02T00:30:03.684Z,20.60
2019-02-02T00:32:34.205Z,20.20
2019-02-02T00:35:05.179Z,19.67
2019-02-02T00:37:35.768Z,21.75
2019-02-02T00:40:07.931Z,23.90
2019-02-02T00:42:38.479Z,19.17
2019-02-02T00:45:09.878Z,25.87
2019-02-02T00:47:40.439Z,19.40
2019-02-02T00:50:11.975Z,22.17
2019-02-02T00:52:42.555Z,22.70
2019-02-02T00:55:13.433Z,21.63
2019-02-02T00:57:53.144Z,21.47
2019-02-02T01:00:17.164Z,18.67
2019-02-02T01:02:47.835Z,18.43
2019-02-02T01:05:19.320Z,23.38
2019-02-02T01:07:50.201Z,20.90
2019-02-02T01:10:27.784Z,21.60
2019-02-02T01:12:58.478Z,19.70
2019-02-02T01:15:29.205Z,20.47
2019-02-02T01:17:59.704Z,22.00
2019-02-02T01:20:31.423Z,17.73
2019-02-02T01:23:02.152Z,21.53
2019-02-02T01:25:32.777Z,18.70
2019-02-02T01:28:05.440Z,20.93
2019-02-02T01:30:35.578Z,25.40
2019-02-02T01:33:06.366Z,24.67
2019-02-02T01:35:37.038Z,18.03
2019-02-02T01:38:07.575Z,22.27
2019-02-02T01:40:38.176Z,17.17
2019-02-02T01:43:08.861Z,21.90
2019-02-02T01:45:39.522Z,21.43
2019-02-02T01:48:10.045Z,19.13
2019-02-02T01:50:40.671Z,20.67
2019-02-02T01:53:11.230Z,18.33
2019-02-02T01:55:41.809Z,23.37
2019-02-02T01:58:16.922Z,26.93
2019-02-02T02:00:44.605Z,21.33
2019-02-02T02:03:15.184Z,22.43
2019-02-02T02:05:45.733Z,20.37
2019-02-02T02:08:16.265Z,23.50
2019-02-02T02:10:46.826Z,23.80
2019-02-02T02:13:17.378Z,23.00
2019-02-02T02:15:47.885Z,23.37
2019-02-02T02:18:18.474Z,23.50
2019-02-02T02:20:49.023Z,22.57
2019-02-02T02:23:19.587Z,22.43
2019-02-02T02:25:50.154Z,24.30
2019-02-02T02:28:27.858Z,20.20
2019-02-02T02:30:52.992Z,22.40
2019-02-02T02:33:23.524Z,21.53
2019-02-02T02:35:54.167Z,22.30
2019-02-02T02:38:24.827Z,23.53
2019-02-02T02:40:55.494Z,23.50
2019-02-02T02:43:26.023Z,23.43
2019-02-02T02:45:56.598Z,24.50
2019-02-02T02:48:27.151Z,25.73
2019-02-02T02:50:57.747Z,25.37
2019-02-02T02:53:28.295Z,28.23
2019-02-02T02:55:58.833Z,24.47
2019-02-02T02:58:40.737Z,24.03
2019-02-02T03:01:01.667Z,27.90
2019-02-02T03:03:32.169Z,26.60
2019-02-02T03:06:02.727Z,27.00
2019-02-02T03:08:33.271Z,25.03
2019-02-02T03:11:03.808Z,26.00
2019-02-02T03:13:34.398Z,24.57
2019-02-02T03:16:04.999Z,21.23
2019-02-02T03:18:35.546Z,21.17
2019-02-02T03:21:06.073Z,22.77
2019-02-02T03:23:36.645Z,25.07
2019-02-02T03:26:07.321Z,25.43
2019-02-02T03:28:37.836Z,25.80
2019-02-02T03:31:08.378Z,21.33
2019-02-02T03:33:38.928Z,23.00
2019-02-02T03:36:09.508Z,24.17
2019-02-02T03:38:40.044Z,27.00
2019-02-02T03:41:10.603Z,23.70
2019-02-02T03:43:41.103Z,27.03
2019-02-02T03:46:11.695Z,22.60
2019-02-02T03:48:42.322Z,26.90
2019-02-02T03:51:12.827Z,21.30
2019-02-02T03:53:43.428Z,20.23
2019-02-02T03:56:13.992Z,23.93
2019-02-02T03:58:44.672Z,27.83
2019-02-02T04:01:15.194Z,24.27
2019-02-02T04:03:45.951Z,25.80
2019-02-02T04:06:16.524Z,25.57
2019-02-02T04:08:47.026Z,26.57
2019-02-02T04:11:17.549Z,26.77
2019-02-02T04:13:48.078Z,21.43
2019-02-02T04:16:18.640Z,21.50
2019-02-02T04:18:49.148Z,25.73
2019-02-02T04:21:19.704Z,22.57
2019-02-02T04:23:50.216Z,22.07
2019-02-02T04:26:20.806Z,20.43
2019-02-02T04:28:51.335Z,21.23
2019-02-02T04:31:21.900Z,20.03
2019-02-02T04:33:52.428Z,21.40
2019-02-02T04:36:22.976Z,23.83
2019-02-02T04:38:53.583Z,19.03
2019-02-02T04:41:24.137Z,23.07
2019-02-02T04:43:54.683Z,18.37
2019-02-02T04:46:25.261Z,24.07
2019-02-02T04:48:55.801Z,24.67
2019-02-02T04:51:26.324Z,20.23
2019-02-02T04:53:58.129Z,20.27
2019-02-02T04:56:28.760Z,21.73
2019-02-02T04:58:59.307Z,21.43
2019-02-02T05:01:29.888Z,23.17
2019-02-02T05:04:00.455Z,20.43
2019-02-02T05:06:31.005Z,19.20
2019-02-02T05:09:01.592Z,20.40
2019-02-02T05:11:32.088Z,22.00
2019-02-02T05:14:02.664Z,19.90
2019-02-02T05:16:33.250Z,25.20
2019-02-02T05:19:03.803Z,20.80
2019-02-02T05:21:34.354Z,24.67
2019-02-02T05:24:04.922Z,24.87
2019-02-02T05:26:35.479Z,22.40
2019-02-02T05:29:06.196Z,20.37
2019-02-02T05:31:36.751Z,22.40
2019-02-02T05:34:07.381Z,20.83
2019-02-02T05:36:37.967Z,22.90
2019-02-02T05:39:10.450Z,20.80
2019-02-02T05:41:41.026Z,23.33
2019-02-02T05:44:11.603Z,20.77
2019-02-02T05:46:42.177Z,23.00
2019-02-02T05:49:12.710Z,24.07
2019-02-02T05:51:43.258Z,19.47
2019-02-02T05:54:13.803Z,20.23
2019-02-02T05:56:44.346Z,29.00
2019-02-02T05:59:14.919Z,23.93
2019-02-02T06:01:45.452Z,27.13
2019-02-02T06:04:15.983Z,19.20
2019-02-02T06:06:46.528Z,23.47
2019-02-02T06:09:17.078Z,21.20
2019-02-02T06:11:47.645Z,25.13
2019-02-02T06:14:18.249Z,29.43
2019-02-02T06:16:48.763Z,28.73
2019-02-02T06:19:19.349Z,21.80
2019-02-02T06:21:49.859Z,24.77
2019-02-02T06:24:20.399Z,25.67
2019-02-02T06:26:51.051Z,21.37
2019-02-02T06:29:21.616Z,22.40
2019-02-02T06:31:52.190Z,26.93
2019-02-02T06:34:22.776Z,23.30
2019-02-02T06:36:53.409Z,24.30
2019-02-02T06:39:23.940Z,25.87
2019-02-02T06:41:54.494Z,19.10
2019-02-02T06:44:25.027Z,23.13
2019-02-02T06:46:55.677Z,20.70
2019-02-02T06:49:26.201Z,25.47
2019-02-02T06:51:56.720Z,27.77
2019-02-02T06:54:31.688Z,22.40
2019-02-02T06:57:00.793Z,26.47
2019-02-02T06:59:31.317Z,24.50
2019-02-02T07:02:01.893Z,22.83
2019-02-02T07:04:32.417Z,23.03
2019-02-02T07:07:02.982Z,24.27
2019-02-02T07:09:33.551Z,25.73
2019-02-02T07:12:04.146Z,24.83
2019-02-02T07:14:34.679Z,25.97
2019-02-02T07:17:05.357Z,28.73
2019-02-02T07:19:35.890Z,28.37
2019-02-02T07:22:06.454Z,28.00
2019-02-02T07:24:36.998Z,29.83
2019-02-02T07:27:07.601Z,30.17
2019-02-02T07:29:38.125Z,29.73
2019-02-02T07:32:08.652Z,24.17
2019-02-02T07:34:39.183Z,28.17
2019-02-02T07:37:09.675Z,26.90
2019-02-02T07:39:40.301Z,27.77
2019-02-02T07:42:10.849Z,30.47
2019-02-02T07:44:41.579Z,29.70
2019-02-02T07:47:12.142Z,27.53
2019-02-02T07:49:42.740Z,29.10
2019-02-02T07:52:13.416Z,32.70
2019-02-02T07:54:49.641Z,32.60
2019-02-02T07:57:20.174Z,33.70
2019-02-02T07:59:50.730Z,35.10
2019-02-02T08:02:21.393Z,37.63
2019-02-02T08:04:54.599Z,41.07
2019-02-02T08:07:25.089Z,35.27
2019-02-02T08:09:55.644Z,35.73
2019-02-02T08:12:26.177Z,35.92
2019-02-02T08:14:59.635Z,35.77
2019-02-02T08:17:32.333Z,35.13
2019-02-02T08:20:02.494Z,32.67
2019-02-02T08:22:33.103Z,34.90
2019-02-02T08:25:05.115Z,36.25
2019-02-02T08:27:35.682Z,34.87
2019-02-02T08:30:11.812Z,34.70
2019-02-02T08:32:42.471Z,35.93
2019-02-02T08:35:13.132Z,34.97
2019-02-02T08:37:43.675Z,39.63
2019-02-02T08:40:16.187Z,37.00
2019-02-02T08:42:49.089Z,36.80
2019-02-02T08:45:19.920Z,36.77
2019-02-02T08:47:50.482Z,39.90
2019-02-02T08:50:36.363Z,36.73
2019-02-02T08:53:07.786Z,39.33
2019-02-02T08:55:38.345Z,45.50
2019-02-02T08:58:08.960Z,43.13
2019-02-02T09:00:39.625Z,40.30
2019-02-02T09:03:10.210Z,43.83
2019-02-02T09:05:40.850Z,38.27
2019-02-02T09:08:24.776Z,38.67
2019-02-02T09:10:55.434Z,42.03
2019-02-02T09:13:26.313Z,40.40
2019-02-02T09:15:56.935Z,41.80
2019-02-02T09:18:27.457Z,39.60
2019-02-02T09:20:58.030Z,40.13
2019-02-02T09:23:28.580Z,45.23
2019-02-02T09:25:59.116Z,43.87
2019-02-02T09:28:29.751Z,43.07
2019-02-02T09:31:00.508Z,46.80
2019-02-02T09:33:32.062Z,40.20
2019-02-02T09:36:02.695Z,38.93
2019-02-02T09:38:33.231Z,42.73
2019-02-02T09:41:03.847Z,49.23
2019-02-02T09:43:34.409Z,46.70
2019-02-02T09:46:05.029Z,41.33
2019-02-02T09:48:35.600Z,41.37
2019-02-02T09:51:06.865Z,44.17
2019-02-02T09:53:37.437Z,44.70
2019-02-02T09:56:08.231Z,50.67
2019-02-02T09:58:38.851Z,41.23
2019-02-02T10:01:09.433Z,42.80
2019-02-02T10:03:40.000Z,37.30
2019-02-02T10:06:10.596Z,45.20
2019-02-02T10:08:41.131Z,39.50
2019-02-02T10:11:11.777Z,44.67
2019-02-02T10:13:42.432Z,46.07
2019-02-02T10:16:13.070Z,43.90
2019-02-02T10:18:44.713Z,48.30
2019-02-02T10:21:15.316Z,36.13
2019-02-02T10:23:45.970Z,48.67
2019-02-02T10:26:16.549Z,43.63
2019-02-02T10:28:47.180Z,45.73
2019-02-02T10:31:17.747Z,44.30
2019-02-02T10:33:48.378Z,44.47
2019-02-02T10:36:20.129Z,45.57
2019-02-02T10:38:51.058Z,40.57
2019-02-02T10:41:21.653Z,46.50
2019-02-02T10:43:52.187Z,46.10
2019-02-02T10:46:22.948Z,44.53
2019-02-02T10:48:53.623Z,46.30
2019-02-02T10:51:25.530Z,44.23
2019-02-02T10:53:56.091Z,52.47
2019-02-02T10:56:26.672Z,49.70
2019-02-02T10:58:57.215Z,41.47
2019-02-02T11:01:27.726Z,50.10
2019-02-02T11:03:58.244Z,51.83
2019-02-02T11:06:30.826Z,46.50
2019-02-02T11:09:01.450Z,45.37
2019-02-02T11:11:32.165Z,43.67
2019-02-02T11:14:02.714Z,46.17
2019-02-02T11:16:33.348Z,49.47
2019-02-02T11:19:03.812Z,47.73
2019-02-02T11:21:34.393Z,45.80
2019-02-02T11:24:05.221Z,56.57
2019-02-02T11:26:35.842Z,50.97
2019-02-02T11:29:06.454Z,48.00
2019-02-02T11:31:37.031Z,42.57
2019-02-02T11:34:07.535Z,51.27
2019-02-02T11:36:38.094Z,50.43
2019-02-02T11:39:09.483Z,50.53
2019-02-02T11:41:40.019Z,51.13
2019-02-02T11:44:10.590Z,55.53
2019-02-02T11:46:41.097Z,51.37
2019-02-02T11:49:11.664Z,50.70
2019-02-02T11:51:42.223Z,45.13
2019-02-02T11:54:12.774Z,53.00
2019-02-02T11:56:43.314Z,51.10
2019-02-02T11:59:14.104Z,50.17
2019-02-02T12:01:44.671Z,53.20
2019-02-02T12:04:15.204Z,52.50
2019-02-02T12:06:45.753Z,51.80
2019-02-02T12:09:16.303Z,51.03
2019-02-02T12:11:46.822Z,53.20
2019-02-02T12:14:17.375Z,52.27
2019-02-02T12:16:47.875Z,49.20
2019-02-02T12:19:18.453Z,47.77
2019-02-02T12:21:48.930Z,55.27
2019-02-02T12:24:19.445Z,58.77
2019-02-02T12:26:49.937Z,53.83
2019-02-02T12:29:20.505Z,52.73
2019-02-02T12:31:51.068Z,53.53
2019-02-02T12:34:21.616Z,53.13
2019-02-02T12:36:52.154Z,59.70
2019-02-02T12:39:22.754Z,57.77
2019-02-02T12:41:53.388Z,60.13
2019-02-02T12:44:23.954Z,59.20
2019-02-02T12:46:54.606Z,63.77
2019-02-02T12:49:25.131Z,53.13
2019-02-02T12:51:55.790Z,61.60
2019-02-02T12:54:26.260Z,53.57
2019-02-02T12:56:56.805Z,55.70
2019-02-02T12:59:27.307Z,55.00
2019-02-02T13:01:57.830Z,52.50
2019-02-02T13:04:28.341Z,62.53
2019-02-02T13:06:58.833Z,55.23
2019-02-02T13:09:29.342Z,60.07
2019-02-02T13:11:59.874Z,57.30
2019-02-02T13:14:30.420Z,56.70
2019-02-02T13:17:00.897Z,56.50
2019-02-02T13:19:31.398Z,62.57
2019-02-02T13:22:01.905Z,54.40
2019-02-02T13:24:32.394Z,55.70
2019-02-02T13:27:02.963Z,54.37
2019-02-02T13:29:33.660Z,59.03
2019-02-02T13:32:04.190Z,54.33
2019-02-02T13:34:34.731Z,55.00
2019-02-02T13:37:05.400Z,61.00
2019-02-02T13:39:35.954Z,63.83
2019-02-02T13:42:09.035Z,55.17
2019-02-02T13:44:39.570Z,64.00
2019-02-02T13:47:10.157Z,59.77
2019-02-02T13:49:40.788Z,55.17
2019-02-02T13:52:11.335Z,58.50
2019-02-02T13:54:41.902Z,58.37
2019-02-02T13:57:21.814Z,55.53
2019-02-02T13:59:48.098Z,55.67
2019-02-02T14:02:20.522Z,53.80
2019-02-02T14:04:51.198Z,58.03
2019-02-02T14:07:21.971Z,55.33
2019-02-02T14:10:00.848Z,61.85
2019-02-02T14:12:37.248Z,60.70
2019-02-02T14:15:09.631Z,56.93
2019-02-02T14:17:40.308Z,60.53
2019-02-02T14:20:11.937Z,68.20
2019-02-02T14:22:42.640Z,60.00
2019-02-02T14:25:13.866Z,61.60
2019-02-02T14:27:44.666Z,58.93
2019-02-02T14:31:08.907Z,58.93
2019-02-02T14:33:39.601Z,59.57
2019-02-02T14:36:10.269Z,64.00
2019-02-02T14:38:44.029Z,64.23
2019-02-02T14:41:14.767Z,64.77
2019-02-02T14:43:45.358Z,61.60
2019-02-02T14:46:16.467Z,60.93
2019-02-02T14:48:47.275Z,69.23
2019-02-02T14:51:18.012Z,62.83
2019-02-02T14:53:49.098Z,71.53
2019-02-02T14:56:22.366Z,58.23
2019-02-02T14:58:55.162Z,62.13
2019-02-02T15:01:26.124Z,64.93
2019-02-02T15:04:07.756Z,59.03
2019-02-02T15:06:30.105Z,69.73
2019-02-02T15:09:01.023Z,63.97
2019-02-02T15:11:31.973Z,63.07
2019-02-02T15:14:02.844Z,63.67
2019-02-02T15:16:33.902Z,60.83
2019-02-02T15:19:04.857Z,67.40
2019-02-02T15:21:35.625Z,66.37
2019-02-02T15:24:06.366Z,73.87
2019-02-02T15:26:37.062Z,68.87
2019-02-02T15:29:07.794Z,66.57
2019-02-02T15:31:38.576Z,69.23
2019-02-02T15:34:09.385Z,71.57
2019-02-02T15:37:09.067Z,65.27
2019-02-02T15:39:39.788Z,67.83
2019-02-02T15:42:10.673Z,71.23
2019-02-02T15:44:41.485Z,77.40
2019-02-02T15:47:12.408Z,70.77
2019-02-02T15:49:46.000Z,73.47
2019-02-02T15:52:30.731Z,67.87
2019-02-02T15:58:24.514Z,78.53
2019-02-02T16:00:55.190Z,73.63
2019-02-02T16:03:27.872Z,75.37
2019-02-02T16:06:03.805Z,77.53
2019-02-02T16:08:34.716Z,76.03
2019-02-02T16:16:42.387Z,80.67
2019-02-02T16:19:17.389Z,70.93
2019-02-02T16:21:51.656Z,81.97
2019-02-02T16:24:22.586Z,81.03
2019-02-02T16:26:53.945Z,78.27
2019-02-02T16:29:25.062Z,79.90
2019-02-02T16:32:00.046Z,78.90
2019-02-02T16:34:36.609Z,76.57
2019-02-02T16:37:14.836Z,75.10
2019-02-02T16:39:48.678Z,69.83
2019-02-02T16:42:28.553Z,80.10
2019-02-02T16:45:26.297Z,71.97
2019-02-02T16:47:41.610Z,64.23
2019-02-02T16:50:15.569Z,68.77
2019-02-02T16:52:47.553Z,70.13
2019-02-02T16:55:18.362Z,63.97
2019-02-02T16:57:49.138Z,76.67
2019-02-02T17:00:42.374Z,71.42
2019-02-02T17:03:16.012Z,72.30
2019-02-02T17:05:48.337Z,78.30
2019-02-02T17:08:28.253Z,70.53
2019-02-02T17:11:01.253Z,71.47
2019-02-02T17:13:31.949Z,70.83
2019-02-02T17:16:02.549Z,68.53
2019-02-02T17:18:33.180Z,69.93
2019-02-02T17:21:03.994Z,68.97
2019-02-02T17:23:34.749Z,64.50
2019-02-02T17:26:06.653Z,70.40
2019-02-02T17:28:37.286Z,80.63
2019-02-02T17:31:11.127Z,85.00
2019-02-02T17:33:40.471Z,73.43
2019-02-02T17:36:12.072Z,77.93
2019-02-02T17:38:45.840Z,79.00
2019-02-02T17:41:25.377Z,73.30
2019-02-02T17:44:00.075Z,74.73
2019-02-02T17:46:30.637Z,77.40
2019-02-02T17:49:01.196Z,72.47
2019-02-02T17:51:31.916Z,70.97
2019-02-02T17:54:02.498Z,72.50
2019-02-02T17:56:33.166Z,75.73
2019-02-02T17:59:03.780Z,71.13
2019-02-02T18:01:34.374Z,81.87
2019-02-02T18:04:05.318Z,81.93
2019-02-02T18:06:38.723Z,73.90
2019-02-02T18:09:26.284Z,82.20
2019-02-02T18:11:57.212Z,83.23
2019-02-02T18:14:28.084Z,83.30
2019-02-02T18:16:58.906Z,75.93
2019-02-02T18:19:29.790Z,74.83
2019-02-02T18:22:00.437Z,78.73
2019-02-02T18:24:47.589Z,74.33
2019-02-02T18:27:19.356Z,75.43
2019-02-02T18:29:50.106Z,70.07
2019-02-02T18:32:20.824Z,75.60
2019-02-02T18:34:51.738Z,70.73
2019-02-02T18:37:25.682Z,78.43
2019-02-02T18:39:56.260Z,85.67
2019-02-02T18:42:27.040Z,72.73
2019-02-02T18:44:57.928Z,68.30
2019-02-02T18:47:29.020Z,73.20
2019-02-02T18:50:00.029Z,74.20
2019-02-02T18:52:30.737Z,70.70
2019-02-02T18:55:04.544Z,81.40
2019-02-02T18:57:35.275Z,77.57
2019-02-02T19:00:08.841Z,79.60
2019-02-02T19:03:03.676Z,73.00
2019-02-02T19:05:44.129Z,75.27
2019-02-02T19:08:17.850Z,78.73
2019-02-02T19:10:49.484Z,71.77
2019-02-02T19:13:20.378Z,82.50
2019-02-02T19:16:14.672Z,87.50
2019-02-02T19:21:20.564Z,75.70
2019-02-02T19:23:51.258Z,82.10
2019-02-02T19:26:23.048Z,81.77
2019-02-02T19:28:55.863Z,82.97
2019-02-02T19:31:41.221Z,77.93
2019-02-02T19:34:18.183Z,61.43
2019-02-02T19:36:47.779Z,71.30
2019-02-02T19:39:21.655Z,69.17
2019-02-02T19:41:52.297Z,72.63
2019-02-02T19:44:23.107Z,65.67
2019-02-02T19:48:50.314Z,68.03
2019-02-02T19:57:20.450Z,64.67
2019-02-02T20:15:26.857Z,60.13
2019-02-02T20:23:50.354Z,64.03
2019-02-02T20:26:47.562Z,65.27
2019-02-02T20:29:34.509Z,59.73
2019-02-02T20:37:22.243Z,56.25
2019-02-02T21:36:34.453Z,58.87
2019-02-02T21:51:49.313Z,74.03
2019-02-02T21:58:34.377Z,69.07
2019-02-02T22:01:23.674Z,77.47
2019-02-02T22:14:05.464Z,68.20
2019-02-02T22:17:18.897Z,59.70
2019-02-02T22:20:58.053Z,71.00
2019-02-02T22:23:54.688Z,64.87
2019-02-02T22:26:48.724Z,67.73
2019-02-02T22:29:30.730Z,63.80
2019-02-02T22:32:09.315Z,62.10
2019-02-02T22:35:02.979Z,65.33
2019-02-02T22:37:53.958Z,66.30
2019-02-02T22:40:32.679Z,63.53
2019-02-02T22:43:24.659Z,64.80
2019-02-02T22:46:35.863Z,73.00
2019-02-02T22:49:20.715Z,64.97
2019-02-02T22:52:09.613Z,63.43
2019-02-02T22:54:57.228Z,68.20
2019-02-02T22:57:45.563Z,72.27
2019-02-02T23:01:19.608Z,61.47
2019-02-02T23:04:49.388Z,68.60
2019-02-02T23:08:19.187Z,61.80
2019-02-02T23:11:46.598Z,60.33
2019-02-02T23:15:03.486Z,66.17
2019-02-02T23:18:03.085Z,68.47
2019-02-02T23:20:52.833Z,71.93
2019-02-02T23:23:29.925Z,59.37
2019-02-02T23:26:10.776Z,70.80
2019-02-02T23:28:55.920Z,70.23
2019-02-02T23:31:30.369Z,63.20
2019-02-02T23:34:34.333Z,68.47
2019-02-02T23:37:08.237Z,62.07
2019-02-02T23:39:48.899Z,63.60
2019-02-02T23:42:18.853Z,65.93
2019-02-02T23:44:50.087Z,78.12
2019-02-02T23:47:29.264Z,73.17
2019-02-02T23:50:02.611Z,70.30
2019-02-02T23:52:42.573Z,64.77
2019-02-02T23:55:13.483Z,71.47
2019-02-02T23:57:48.992Z,70.17
